Latest Weather Observations for Cape Sorell

IDT60801

Issued at 10:05 am EDT Wednesday 26 November 2014 (issued every 30 minutes, with the page automatically refreshed every 10 minutes)

About weather observations | Map of weather stations | Latest weather observations for TAS | Other Formats
Station Details ID: 097000 Name: CAPE SORELL Lat: -42.20 Lon: 145.17 Height: 19.3 m
Data from the previous 72 hours. | See also: Recent months at Cape Sorell
Date/Time
EDT
Temp
°C
App
Temp
°C
Dew
Point
Rel
Hum
%
Delta-T
°C
Wind Press
QNH
hPa
Press
MSL
hPa
Rain
since 9 am
mm
Dir
 
Spd
km/h
Gust
km/h
Spd
kts
Gust
kts
26/10:00am 11.7 4.8 8.7 82 1.5 SW 35 46 19 25 1017.7 1017.7 0.0
26/09:30am 11.2 5.7 9.1 87 1.0 SW 28 35 15 19 1017.7 1017.7 0.0
26/09:00am 11.8 5.5 7.3 74 2.2 WSW 30 35 16 19 1017.3 1017.3 3.6
26/08:30am 12.1 5.4 7.4 73 2.3 SW 32 41 17 22 1016.8 1016.8 3.6
26/08:00am 11.8 5.5 8.8 82 1.5 SW 32 39 17 21 1016.4 1016.4 3.6
26/07:30am 11.4 4.7 9.7 89 0.9 SW 35 44 19 24 1016.1 1016.1 3.6
26/07:00am 11.0 4.1 8.9 87 1.0 WSW 35 48 19 26 1015.8 1015.8 3.6
26/06:30am 10.9 5.3 8.8 87 1.0 WSW 28 37 15 20 1015.2 1015.3 3.6
26/06:00am 11.1 5.3 9.4 89 0.9 WSW 30 41 16 22 1014.8 1014.8 3.6
26/05:30am 11.3 5.1 10.0 92 0.7 SW 33 41 18 22 1014.6 1014.6 3.6
26/05:00am 11.3 5.4 10.4 94 0.5 WSW 32 39 17 21 1014.1 1014.1 3.6
26/04:30am 10.8 5.2 10.3 97 0.3 SW 30 43 16 23 1013.8 1013.8 3.6
26/04:00am 11.0 5.2 10.8 99 0.1 WSW 32 43 17 23 1013.5 1013.5 3.6
26/03:30am 11.2 5.3 11.2 100 0.0 WSW 33 39 18 21 1013.2 1013.2 3.6
26/03:00am 11.0 5.6 11.0 100 0.0 WSW 30 37 16 20 1013.1 1013.1 3.6
26/02:30am 10.7 3.2 10.7 100 0.0 WSW 41 50 22 27 1013.0 1013.0 3.4
26/02:00am 11.6 5.1 11.6 100 0.0 WSW 37 48 20 26 1013.0 1013.0 2.2
26/01:56am 12.6 6.4 12.6 100 0.0 WSW 37 48 20 26 1012.9 1012.9 2.0
26/01:30am 12.3 5.2 12.3 100 0.0 WNW 41 56 22 30 1012.8 1012.8 1.8
26/01:00am 12.2 5.1 12.2 100 0.0 WNW 41 50 22 27 1013.1 1013.1 1.8
26/12:30am 12.1 5.3 12.1 100 0.0 WNW 39 50 21 27 1013.5 1013.5 1.8
26/12:00am 11.9 5.1 11.9 100 0.0 WNW 39 54 21 29 1013.6 1013.6 1.6
 
Date/Time
EDT
Temp
°C
App
Temp
°C
Dew
Point
Rel
Hum
%
Delta-T
°C
Wind Press
QNH
hPa
Press
MSL
hPa
Rain
since 9 am
mm
Dir
 
Spd
km/h
Gust
km/h
Spd
kts
Gust
kts
25/11:51pm 11.9 6.2 11.9 100 0.0 WNW 33 54 18 29 1013.8 1013.8 1.6
25/11:30pm 11.7 5.1 11.5 99 0.1 WNW 37 50 20 27 1014.0 1014.0 1.6
25/11:06pm 11.6 4.6 11.4 99 0.1 WNW 39 59 21 32 1013.8 1013.8 1.6
25/11:00pm 11.6 5.4 11.4 99 0.1 WNW 35 46 19 25 1014.0 1014.0 1.4
25/10:30pm 11.6 3.9 10.3 92 0.7 WNW 41 56 22 30 1014.4 1014.4 1.0
25/10:04pm 12.0 6.2 9.6 85 1.2 WNW 30 50 16 27 1014.4 1014.4 0.8
25/10:00pm 12.1 6.8 9.7 85 1.2 WNW 28 37 15 20 1014.5 1014.5 0.6
25/09:30pm 12.4 6.2 9.2 81 1.6 WNW 32 44 17 24 1014.5 1014.5 0.6
25/09:00pm 12.4 6.2 9.2 81 1.6 WNW 32 44 17 24 1014.4 1014.4 0.6
25/08:30pm 12.2 5.9 9.0 81 1.6 W 32 41 17 22 1014.4 1014.4 0.6
25/08:00pm 11.6 4.9 8.3 80 1.6 WNW 33 44 18 24 1014.4 1014.4 0.6
25/07:30pm 12.5 7.2 8.4 76 2.0 W 26 39 14 21 1014.2 1014.2 0.6
25/07:00pm 12.6 7.3 8.3 75 2.1 W 26 37 14 20 1014.1 1014.1 0.6
25/06:30pm 12.6 7.4 8.7 77 1.9 W 26 39 14 21 1013.9 1013.9 0.6
25/06:00pm 12.4 7.2 8.7 78 1.8 W 26 37 14 20 1013.7 1013.7 0.6
25/05:30pm 11.5 6.3 8.7 83 1.4 WNW 26 35 14 19 1014.0 1014.0 0.6
25/05:00pm 12.4 5.8 8.7 78 1.8 WSW 33 43 18 23 1013.6 1013.6 0.6
25/04:30pm 13.1 6.3 7.8 70 2.6 W 33 43 18 23 1013.4 1013.4 0.6
25/04:00pm 14.1 8.5 8.7 70 2.7 W 28 39 15 21 1013.4 1013.4 0.6
25/03:30pm 13.9 6.9 8.5 70 2.7 W 35 46 19 25 1013.0 1013.0 0.6
25/03:00pm 13.5 6.5 8.6 72 2.5 W 35 48 19 26 1013.0 1013.0 0.6
25/02:30pm 13.7 8.1 10.1 79 1.9 W 30 43 16 23 1012.8 1012.8 0.6
25/02:00pm 12.5 5.0 9.5 82 1.5 WSW 39 50 21 27 1012.6 1012.6 0.6
25/01:30pm 13.0 6.5 10.2 83 1.4 W 35 54 19 29 1012.4 1012.4 0.6
25/01:23pm 14.0 8.5 11.9 87 1.1 W 32 54 17 29 1012.1 1012.1 0.6
25/01:00pm 13.0 7.5 11.9 93 0.6 WSW 32 41 17 22 1012.0 1012.0 0.6
25/12:30pm 11.8 4.5 10.2 90 0.8 WSW 39 59 21 32 1011.6 1011.6 0.6
25/12:26pm 12.9 7.3 11.5 91 0.7 WSW 32 59 17 32 1011.7 1011.7 0.6
25/12:00pm 12.6 7.0 12.0 96 0.3 WSW 33 43 18 23 1011.8 1011.8 0.6
25/11:30am 12.7 7.1 10.1 84 1.3 W 30 41 16 22 1011.6 1011.6 0.2
25/11:00am 12.9 8.8 11.3 90 0.8 WSW 24 32 13 17 1011.6 1011.6 0.2
25/10:30am 12.6 9.3 11.7 94 0.5 WSW 20 28 11 15 1011.6 1011.6 0.2
25/10:00am 12.5 6.3 9.9 84 1.3 WSW 33 46 18 25 1011.2 1011.2 0.0
25/09:30am 13.5 7.2 9.0 74 2.3 WSW 32 39 17 21 1010.8 1010.8 0.0
25/09:00am 12.8 6.2 8.7 76 2.1 WSW 33 43 18 23 1010.3 1010.3 12.6
25/08:30am 12.5 5.3 9.0 79 1.8 WSW 37 46 20 25 1009.8 1009.8 12.6
25/08:00am 12.3 5.4 9.0 80 1.7 WSW 35 44 19 24 1009.5 1009.5 12.6
25/07:30am 12.0 4.9 8.1 77 1.9 WSW 35 43 19 23 1009.0 1009.0 12.6
25/07:00am 12.1 4.1 8.9 81 1.6 WSW 41 50 22 27 1008.5 1008.5 12.6
25/06:30am 11.8 3.3 8.6 81 1.6 WSW 43 50 23 27 1008.1 1008.1 12.6
25/06:00am 11.7 3.7 8.9 83 1.4 WSW 41 52 22 28 1007.7 1007.7 12.6
25/05:30am 11.7 2.9 9.4 86 1.2 WSW 46 54 25 29 1006.8 1006.8 12.6
25/05:00am 11.6 3.5 10.7 94 0.5 WSW 44 52 24 28 1006.6 1006.6 12.6
25/04:30am 11.3 3.4 10.8 97 0.3 WSW 43 54 23 29 1006.0 1006.0 12.6
25/04:00am 11.0 3.9 10.8 99 0.1 WSW 39 54 21 29 1005.6 1005.6 12.6
25/03:48am 11.6 5.4 11.4 99 0.1 W 35 54 19 29 1005.7 1005.7 12.6
25/03:30am 11.5 5.6 11.3 99 0.1 W 33 44 18 24 1005.6 1005.6 12.6
25/03:00am 10.9 3.4 10.7 99 0.1 WSW 41 56 22 30 1005.7 1005.7 12.6
25/02:30am 11.5 6.2 11.3 99 0.1 W 30 41 16 22 1005.6 1005.6 12.4
25/02:00am 11.4 5.1 11.2 99 0.1 W 35 46 19 25 1005.5 1005.5 12.4
25/01:36am 11.5 6.2 11.3 99 0.1 W 30 50 16 27 1005.2 1005.2 12.0
25/01:30am 11.7 6.5 11.5 99 0.1 W 30 43 16 23 1005.4 1005.4 12.0
25/01:00am 11.2 4.5 11.0 99 0.1 W 37 50 20 27 1005.3 1005.3 12.0
25/12:47am 10.9 3.7 10.7 99 0.1 W 39 52 21 28 1005.1 1005.1 12.0
25/12:40am 11.5 5.8 11.2 98 0.2 WNW 32 52 17 28 1005.4 1005.4 10.0
25/12:30am 11.2 5.4 10.7 97 0.3 WNW 32 43 17 23 1005.4 1005.4 9.8
25/12:03am 11.8 5.3 10.5 92 0.7 WNW 35 56 19 30 1005.4 1005.4 8.0
25/12:00am 11.8 5.7 10.5 92 0.7 WNW 33 44 18 24 1005.4 1005.4 8.0
 
Date/Time
EDT
Temp
°C
App
Temp
°C
Dew
Point
Rel
Hum
%
Delta-T
°C
Wind Press
QNH
hPa
Press
MSL
hPa
Rain
since 9 am
mm
Dir
 
Spd
km/h
Gust
km/h
Spd
kts
Gust
kts
24/11:30pm 11.5 4.5 10.1 91 0.7 WNW 37 46 20 25 1005.5 1005.5 7.8
24/11:00pm 11.4 3.9 9.3 87 1.1 WNW 39 59 21 32 1005.7 1005.7 7.8
24/10:52pm 12.5 6.4 9.9 84 1.3 WNW 32 50 17 27 1005.7 1005.7 7.4
24/10:30pm 12.2 5.1 9.4 83 1.4 WNW 37 44 20 24 1005.7 1005.7 7.4
24/10:00pm 12.3 6.5 9.5 83 1.4 WNW 30 44 16 24 1005.8 1005.8 7.4
24/09:30pm 12.3 5.9 9.5 83 1.4 W 33 43 18 23 1005.8 1005.8 7.4
24/09:00pm 12.3 6.2 9.7 84 1.3 W 32 43 17 23 1005.5 1005.5 7.4
24/08:30pm 12.2 6.1 9.9 86 1.2 W 32 43 17 23 1005.3 1005.3 7.4
24/08:00pm 12.4 6.3 10.6 89 0.9 W 33 44 18 24 1004.8 1004.8 7.4
24/07:30pm 12.8 8.3 11.5 92 0.7 WNW 26 37 14 20 1004.6 1004.6 7.4
24/07:00pm 12.9 9.9 12.6 98 0.2 NW 20 33 11 18 1004.5 1004.5 7.4
24/06:30pm 12.9 9.6 12.9 100 0.0 NNW 22 28 12 15 1004.4 1004.4 7.4
24/06:00pm 13.3 10.7 13.3 100 0.0 NW 19 26 10 14 1004.5 1004.5 7.4
24/05:30pm 12.1 9.0 12.1 100 0.0 NW 20 30 11 16 1004.7 1004.7 7.4
24/05:00pm 11.6 8.5 11.6 100 0.0 WNW 19 24 10 13 1004.4 1004.4 7.4
24/04:30pm 11.4 8.0 11.4 100 0.0 WNW 20 32 11 17 1004.5 1004.5 7.4
24/04:00pm 11.3 7.9 11.3 100 0.0 W 20 32 11 17 1004.6 1004.6 7.2
24/03:30pm 11.5 7.0 11.5 100 0.0 W 26 37 14 20 1004.5 1004.5 6.8
24/03:00pm 12.7 6.9 12.7 100 0.0 N 35 46 19 25 1004.5 1004.5 5.2
24/02:30pm 12.8 6.3 12.8 100 0.0 N 39 46 21 25 1004.6 1004.6 4.6
24/02:00pm 13.0 7.6 12.8 99 0.1 N 33 39 18 21 1005.1 1005.1 4.0
24/01:30pm 13.5 10.8 13.0 97 0.3 NNW 19 26 10 14 1005.5 1005.5 3.6
24/01:00pm 13.8 11.0 13.3 97 0.3 N 20 26 11 14 1005.6 1005.6 3.2
24/12:30pm 13.4 9.4 13.1 98 0.2 N 26 30 14 16 1005.9 1005.9 3.2
24/12:00pm 13.5 8.8 13.3 99 0.1 N 30 37 16 20 1005.9 1005.9 3.2
24/11:30am 13.4 8.2 13.4 100 0.0 N 33 39 18 21 1006.5 1006.5 3.2
24/11:00am 13.0 9.4 13.0 100 0.0 N 24 32 13 17 1007.1 1007.1 3.2
24/10:30am 12.6 8.8 12.4 99 0.1 N 24 28 13 15 1007.5 1007.5 2.4
24/10:00am 12.6 9.1 12.1 97 0.3 N 22 28 12 15 1007.7 1007.7 1.4
24/09:30am 12.6 5.2 11.2 91 0.7 N 41 46 22 25 1007.6 1007.6 0.6
24/09:00am 13.5 6.0 10.7 83 1.5 N 41 50 22 27 1007.9 1007.9 0.2
24/08:30am 14.4 7.1 10.2 76 2.2 N 39 46 21 25 1007.4 1007.4 0.0
24/08:00am 14.1 7.8 8.9 71 2.6 N 32 35 17 19 1007.9 1007.9 0.0
24/07:30am 14.4 8.0 8.6 68 2.9 N 32 39 17 21 1007.6 1007.6 0.0
24/07:00am 14.1 9.1 7.9 66 3.1 N 24 28 13 15 1008.1 1008.1 0.0
24/06:30am 14.2 9.9 7.7 65 3.2 N 20 24 11 13 1008.3 1008.3 0.0
24/06:00am 14.1 9.9 8.1 67 3.0 N 20 26 11 14 1008.3 1008.3 0.0
24/05:30am 13.9 9.9 8.3 69 2.8 N 19 20 10 11 1008.2 1008.2 0.0
24/05:00am 13.7 8.7 8.1 69 2.8 N 24 28 13 15 1008.2 1008.2 0.0
24/04:30am 13.5 8.6 8.6 72 2.5 NNE 24 30 13 16 1008.7 1008.7 0.0
24/04:00am 13.3 8.2 7.5 68 2.8 NNE 24 28 13 15 1008.3 1008.3 0.0
24/03:30am 13.2 8.5 7.9 70 2.6 NNE 22 26 12 14 1008.9 1008.9 0.0
24/03:00am 13.3 8.7 8.2 71 2.5 NNE 22 28 12 15 1009.3 1009.3 0.0
24/02:30am 13.3 9.0 8.0 70 2.6 NNE 20 24 11 13 1009.6 1009.6 0.0
24/02:00am 13.5 9.3 8.1 70 2.7 NNE 20 26 11 14 1009.8 1009.8 0.0
24/01:30am 13.5 9.4 8.6 72 2.5 NNE 20 24 11 13 1010.1 1010.1 0.0
24/01:00am 13.6 10.2 9.3 75 2.2 N 17 19 9 10 1010.5 1010.5 0.0
24/12:30am 14.1 10.9 9.9 76 2.2 N 17 19 9 10 1010.7 1010.7 0.0
24/12:00am 14.2 11.3 9.6 74 2.4 N 15 22 8 12 1011.1 1011.1 0.0
 
Date/Time
EDT
Temp
°C
App
Temp
°C
Dew
Point
Rel
Hum
%
Delta-T
°C
Wind Press
QNH
hPa
Press
MSL
hPa
Rain
since 9 am
mm
Dir
 
Spd
km/h
Gust
km/h
Spd
kts
Gust
kts
23/11:30pm 14.5 11.1 9.3 71 2.7 N 17 20 9 11 1011.3 1011.3 0.0
23/11:00pm 14.6 10.2 9.0 69 2.9 N 22 26 12 14 1011.5 1011.5 0.0
23/10:30pm 14.6 9.7 9.8 73 2.5 N 26 30 14 16 1011.8 1011.8 0.0
23/10:00pm 14.7 10.1 10.9 78 2.0 N 26 32 14 17 1011.9 1011.9 0.0
23/09:30pm 14.7 10.5 11.1 79 1.9 N 24 30 13 16 1012.2 1012.2 0.0
23/09:00pm 14.8 11.0 11.2 79 1.9 N 22 26 12 14 1011.9 1011.9 0.0
23/08:30pm 14.9 10.8 11.5 80 1.8 N 24 28 13 15 1012.2 1012.2 0.0
23/08:00pm 14.7 11.3 11.1 79 1.9 N 20 28 11 15 1011.7 1011.7 0.0
23/07:30pm 14.8 10.9 10.8 77 2.1 NNW 22 28 12 15 1012.0 1012.0 0.0
23/07:00pm 14.9 11.2 10.1 73 2.5 NNW 20 28 11 15 1011.8 1011.8 0.0
23/06:30pm 15.0 11.2 9.8 71 2.7 NNW 20 26 11 14 1011.8 1011.8 0.0
23/06:00pm 15.6 12.0 10.6 72 2.6 NNW 20 26 11 14 1011.7 1011.7 0.0
23/05:30pm 16.2 13.5 10.3 68 3.1 NNW 15 20 8 11 1011.4 1011.4 0.0
23/05:00pm 15.8 12.8 10.6 71 2.8 N 17 22 9 12 1011.1 1011.1 0.0
23/04:30pm 15.8 12.7 10.3 70 2.9 N 17 22 9 12 1011.0 1011.0 0.0
23/04:00pm 16.1 13.1 10.6 70 2.9 N 17 22 9 12 1010.9 1010.9 0.0
23/03:30pm 16.0 12.5 10.3 69 3.0 N 19 22 10 12 1011.1 1011.1 0.0
23/03:00pm 17.8 15.4 11.4 66 3.5 NNW 15 20 8 11 1011.2 1011.2 0.0
23/02:30pm 17.7 15.6 11.3 66 3.5 NNW 13 20 7 11 1011.1 1011.1 0.0
23/02:00pm 18.2 15.9 11.7 66 3.6 NW 15 19 8 10 1011.3 1011.3 0.0
23/01:30pm 17.5 14.7 11.3 67 3.4 NNW 17 24 9 13 1011.4 1011.4 0.0
23/01:00pm 17.8 15.3 12.3 70 3.0 NNW 17 24 9 13 1011.4 1011.4 0.0
23/12:30pm 17.5 14.6 12.4 72 2.8 NW 19 24 10 13 1011.4 1011.4 0.0
23/12:00pm 17.5 14.7 12.6 73 2.7 NW 19 24 10 13 1011.3 1011.3 0.0
23/11:30am 17.0 13.9 12.1 73 2.7 NNW 20 24 11 13 1011.3 1011.3 0.0
23/11:00am 16.4 13.1 11.6 73 2.6 NNW 20 26 11 14 1011.2 1011.2 0.0
23/10:30am 16.3 13.3 12.1 76 2.3 NW 19 24 10 13 1011.0 1011.0 0.0

Other Formats:

Comma delimited format used in spreadsheet applications
http://www.bom.gov.au/fwo/IDT60801/IDT60801.94974.axf

JavaScript Object Notation format (JSON) in row-major order
http://www.bom.gov.au/fwo/IDT60801/IDT60801.94974.json